sensor_id;sensor_type;location;lat;lon;timestamp;pressure;altitude;pressure_sealevel;temperature;humidity
70589;BME280;58152;49.202;18.744;2023-05-10T00:01:46;97542.25;;;10.77;44.95
70589;BME280;58152;49.202;18.744;2023-05-10T00:04:12;97538.81;;;10.75;44.55
70589;BME280;58152;49.202;18.744;2023-05-10T00:06:37;97540.00;;;10.67;45.13
70589;BME280;58152;49.202;18.744;2023-05-10T00:09:03;97545.19;;;10.69;45.42
70589;BME280;58152;49.202;18.744;2023-05-10T00:11:29;97531.53;;;10.61;45.07
70589;BME280;58152;49.202;18.744;2023-05-10T00:13:54;97537.69;;;10.60;45.55
70589;BME280;58152;49.202;18.744;2023-05-10T00:16:20;97531.06;;;10.51;45.15
70589;BME280;58152;49.202;18.744;2023-05-10T00:18:45;97535.66;;;10.46;45.47
70589;BME280;58152;49.202;18.744;2023-05-10T00:21:11;97536.50;;;10.47;45.81
70589;BME280;58152;49.202;18.744;2023-05-10T00:23:36;97533.22;;;10.41;45.20
70589;BME280;58152;49.202;18.744;2023-05-10T00:26:02;97524.81;;;10.33;45.51
70589;BME280;58152;49.202;18.744;2023-05-10T00:28:28;97529.03;;;10.37;45.39
70589;BME280;58152;49.202;18.744;2023-05-10T00:30:54;97521.28;;;10.34;45.88
70589;BME280;58152;49.202;18.744;2023-05-10T00:33:19;97519.66;;;10.32;45.76
70589;BME280;58152;49.202;18.744;2023-05-10T00:35:45;97523.06;;;10.34;46.39
70589;BME280;58152;49.202;18.744;2023-05-10T00:38:10;97506.72;;;10.27;46.14
70589;BME280;58152;49.202;18.744;2023-05-10T00:40:36;97518.13;;;10.26;46.52
70589;BME280;58152;49.202;18.744;2023-05-10T00:43:02;97512.13;;;10.23;46.27
70589;BME280;58152;49.202;18.744;2023-05-10T00:45:29;97509.94;;;10.12;46.31
70589;BME280;58152;49.202;18.744;2023-05-10T00:47:55;97504.00;;;10.08;45.96
70589;BME280;58152;49.202;18.744;2023-05-10T00:50:24;97492.97;;;10.00;46.53
70589;BME280;58152;49.202;18.744;2023-05-10T00:52:50;97502.81;;;9.93;46.39
70589;BME280;58152;49.202;18.744;2023-05-10T00:55:15;97500.38;;;9.89;46.57
70589;BME280;58152;49.202;18.744;2023-05-10T00:57:41;97486.03;;;9.77;46.92
70589;BME280;58152;49.202;18.744;2023-05-10T01:00:07;97489.50;;;9.78;47.20
70589;BME280;58152;49.202;18.744;2023-05-10T01:02:34;97483.50;;;9.74;46.98
70589;BME280;58152;49.202;18.744;2023-05-10T01:05:00;97488.56;;;9.79;47.24
70589;BME280;58152;49.202;18.744;2023-05-10T01:07:29;97494.84;;;9.75;47.25
70589;BME280;58152;49.202;18.744;2023-05-10T01:09:55;97493.41;;;9.67;46.92
70589;BME280;58152;49.202;18.744;2023-05-10T01:12:21;97480.66;;;9.58;47.68
70589;BME280;58152;49.202;18.744;2023-05-10T01:14:46;97489.31;;;9.60;47.17
70589;BME280;58152;49.202;18.744;2023-05-10T01:17:13;97484.91;;;9.61;47.50
70589;BME280;58152;49.202;18.744;2023-05-10T01:19:39;97479.91;;;9.55;47.44
70589;BME280;58152;49.202;18.744;2023-05-10T01:30:41;97480.41;;;9.19;49.38
70589;BME280;58152;49.202;18.744;2023-05-10T01:33:27;97482.13;;;9.20;49.51
70589;BME280;58152;49.202;18.744;2023-05-10T01:36:05;97475.53;;;9.10;48.74
70589;BME280;58152;49.202;18.744;2023-05-10T01:38:53;97467.78;;;9.07;49.83
70589;BME280;58152;49.202;18.744;2023-05-10T01:44:32;97470.41;;;9.07;49.71
70589;BME280;58152;49.202;18.744;2023-05-10T01:47:07;97467.94;;;9.02;48.80
70589;BME280;58152;49.202;18.744;2023-05-10T01:49:39;97470.72;;;8.99;48.83
70589;BME280;58152;49.202;18.744;2023-05-10T01:52:11;97469.97;;;8.96;48.75
70589;BME280;58152;49.202;18.744;2023-05-10T01:54:43;97467.28;;;8.97;49.25
70589;BME280;58152;49.202;18.744;2023-05-10T01:57:10;97466.44;;;8.97;48.91
70589;BME280;58152;49.202;18.744;2023-05-10T01:59:40;97459.91;;;8.85;48.72
70589;BME280;58152;49.202;18.744;2023-05-10T02:02:08;97461.66;;;8.84;49.39
70589;BME280;58152;49.202;18.744;2023-05-10T02:04:39;97460.06;;;8.80;49.09
70589;BME280;58152;49.202;18.744;2023-05-10T02:07:07;97461.84;;;8.80;48.71
70589;BME280;58152;49.202;18.744;2023-05-10T02:09:34;97453.34;;;8.73;49.34
70589;BME280;58152;49.202;18.744;2023-05-10T02:12:02;97462.00;;;8.75;49.64
70589;BME280;58152;49.202;18.744;2023-05-10T02:14:32;97446.91;;;8.58;49.28
70589;BME280;58152;49.202;18.744;2023-05-10T02:17:00;97457.44;;;8.57;49.35
70589;BME280;58152;49.202;18.744;2023-05-10T02:19:28;97460.81;;;8.59;49.41
70589;BME280;58152;49.202;18.744;2023-05-10T02:21:55;97458.28;;;8.57;49.94
70589;BME280;58152;49.202;18.744;2023-05-10T02:24:24;97453.09;;;8.56;49.46
70589;BME280;58152;49.202;18.744;2023-05-10T02:26:51;97452.53;;;8.48;50.06
70589;BME280;58152;49.202;18.744;2023-05-10T02:29:19;97450.00;;;8.45;49.61
70589;BME280;58152;49.202;18.744;2023-05-10T02:31:45;97444.84;;;8.43;49.54
70589;BME280;58152;49.202;18.744;2023-05-10T02:34:11;97460.53;;;8.43;50.15
70589;BME280;58152;49.202;18.744;2023-05-10T02:36:39;97449.31;;;8.39;49.95
70589;BME280;58152;49.202;18.744;2023-05-10T02:39:06;97460.63;;;8.40;50.18
70589;BME280;58152;49.202;18.744;2023-05-10T02:41:35;97466.94;;;8.33;50.27
70589;BME280;58152;49.202;18.744;2023-05-10T02:44:02;97469.84;;;8.24;50.28
70589;BME280;58152;49.202;18.744;2023-05-10T02:46:29;97461.22;;;8.22;50.42
70589;BME280;58152;49.202;18.744;2023-05-10T02:48:55;97463.16;;;8.17;50.90
70589;BME280;58152;49.202;18.744;2023-05-10T02:51:23;97456.16;;;8.17;50.88
70589;BME280;58152;49.202;18.744;2023-05-10T02:53:50;97456.94;;;8.19;50.41
70589;BME280;58152;49.202;18.744;2023-05-10T02:56:36;97463.03;;;8.20;51.25
70589;BME280;58152;49.202;18.744;2023-05-10T02:59:04;97463.16;;;8.17;50.27
70589;BME280;58152;49.202;18.744;2023-05-10T03:01:30;97458.25;;;8.07;50.79
70589;BME280;58152;49.202;18.744;2023-05-10T03:03:55;97470.31;;;8.10;50.49
70589;BME280;58152;49.202;18.744;2023-05-10T03:06:21;97460.88;;;8.06;50.76
70589;BME280;58152;49.202;18.744;2023-05-10T03:08:46;97467.69;;;8.11;50.92
70589;BME280;58152;49.202;18.744;2023-05-10T03:16:34;97454.81;;;8.05;50.87
70589;BME280;58152;49.202;18.744;2023-05-10T03:21:28;97466.53;;;7.94;51.24
70589;BME280;58152;49.202;18.744;2023-05-10T03:23:59;97447.72;;;7.82;51.22
70589;BME280;58152;49.202;18.744;2023-05-10T03:26:28;97455.63;;;7.81;51.36
70589;BME280;58152;49.202;18.744;2023-05-10T03:28:58;97445.97;;;7.83;51.69
70589;BME280;58152;49.202;18.744;2023-05-10T03:31:24;97458.16;;;7.84;51.28
70589;BME280;58152;49.202;18.744;2023-05-10T03:33:51;97452.09;;;7.82;51.02
70589;BME280;58152;49.202;18.744;2023-05-10T03:36:18;97458.38;;;7.76;51.56
70589;BME280;58152;49.202;18.744;2023-05-10T03:38:43;97454.22;;;7.71;51.80
70589;BME280;58152;49.202;18.744;2023-05-10T03:41:09;97453.16;;;7.76;51.68
70589;BME280;58152;49.202;18.744;2023-05-10T03:43:34;97452.00;;;7.85;51.85
70589;BME280;58152;49.202;18.744;2023-05-10T03:46:03;97447.63;;;7.85;51.85
70589;BME280;58152;49.202;18.744;2023-05-10T03:48:29;97451.19;;;7.83;52.16
70589;BME280;58152;49.202;18.744;2023-05-10T03:50:55;97458.16;;;7.84;51.75
70589;BME280;58152;49.202;18.744;2023-05-10T03:53:20;97452.16;;;7.80;52.39
70589;BME280;58152;49.202;18.744;2023-05-10T03:55:46;97453.94;;;7.80;51.86
70589;BME280;58152;49.202;18.744;2023-05-10T03:58:13;97450.47;;;7.79;51.94
70589;BME280;58152;49.202;18.744;2023-05-10T04:00:38;97448.72;;;7.78;51.62
70589;BME280;58152;49.202;18.744;2023-05-10T04:03:09;97443.00;;;7.67;52.45
70589;BME280;58152;49.202;18.744;2023-05-10T04:08:56;97445.69;;;7.66;52.43
70589;BME280;58152;49.202;18.744;2023-05-10T04:11:27;97458.63;;;7.69;52.60
70589;BME280;58152;49.202;18.744;2023-05-10T04:13:53;97445.56;;;7.69;52.36
70589;BME280;58152;49.202;18.744;2023-05-10T04:19:53;97449.19;;;7.64;53.90
70589;BME280;58152;49.202;18.744;2023-05-10T04:22:25;97464.69;;;7.69;53.06
70589;BME280;58152;49.202;18.744;2023-05-10T04:24:57;97444.16;;;7.58;52.80
70589;BME280;58152;49.202;18.744;2023-05-10T04:27:22;97457.06;;;7.63;52.66
70589;BME280;58152;49.202;18.744;2023-05-10T04:29:48;97459.47;;;7.69;52.87
70589;BME280;58152;49.202;18.744;2023-05-10T04:32:13;97448.25;;;7.67;53.32
70589;BME280;58152;49.202;18.744;2023-05-10T04:34:41;97455.09;;;7.70;53.03
70589;BME280;58152;49.202;18.744;2023-05-10T04:37:06;97458.63;;;7.69;53.36
70589;BME280;58152;49.202;18.744;2023-05-10T04:39:32;97457.69;;;7.71;53.29
70589;BME280;58152;49.202;18.744;2023-05-10T04:41:58;97462.00;;;7.72;53.33
70589;BME280;58152;49.202;18.744;2023-05-10T04:44:23;97457.78;;;7.68;53.16
70589;BME280;58152;49.202;18.744;2023-05-10T04:46:49;97455.91;;;7.72;53.24
70589;BME280;58152;49.202;18.744;2023-05-10T04:49:14;97445.56;;;7.69;52.85
70589;BME280;58152;49.202;18.744;2023-05-10T04:51:39;97445.56;;;7.69;53.58
70589;BME280;58152;49.202;18.744;2023-05-10T04:54:05;97445.38;;;7.75;53.52
70589;BME280;58152;49.202;18.744;2023-05-10T04:56:30;97454.81;;;7.79;53.54
70589;BME280;58152;49.202;18.744;2023-05-10T04:58:56;97461.75;;;7.80;53.21
70589;BME280;58152;49.202;18.744;2023-05-10T05:01:21;97453.72;;;7.86;53.26
70589;BME280;58152;49.202;18.744;2023-05-10T05:03:48;97451.03;;;7.87;53.67
70589;BME280;58152;49.202;18.744;2023-05-10T05:06:13;97453.72;;;7.86;53.41
70589;BME280;58152;49.202;18.744;2023-05-10T05:08:39;97450.88;;;7.92;53.82
70589;BME280;58152;49.202;18.744;2023-05-10T05:11:04;97441.47;;;7.88;53.85
70589;BME280;58152;49.202;18.744;2023-05-10T05:13:37;97452.72;;;7.90;54.36
70589;BME280;58152;49.202;18.744;2023-05-10T05:16:02;97457.88;;;7.92;54.17
70589;BME280;58152;49.202;18.744;2023-05-10T05:18:28;97463.16;;;7.90;53.88
70589;BME280;58152;49.202;18.744;2023-05-10T05:20:54;97457.03;;;7.91;53.66
70589;BME280;58152;49.202;18.744;2023-05-10T05:23:19;97453.50;;;7.92;54.26
70589;BME280;58152;49.202;18.744;2023-05-10T05:25:46;97462.91;;;7.98;53.73
70589;BME280;58152;49.202;18.744;2023-05-10T05:28:11;97450.00;;;7.93;54.51
70589;BME280;58152;49.202;18.744;2023-05-10T05:30:37;97460.19;;;8.01;54.34
70589;BME280;58152;49.202;18.744;2023-05-10T05:33:02;97454.94;;;8.02;53.66
70589;BME280;58152;49.202;18.744;2023-05-10T05:35:28;97453.94;;;8.05;53.93
70589;BME280;58152;49.202;18.744;2023-05-10T05:37:53;97454.66;;;8.10;54.04
70589;BME280;58152;49.202;18.744;2023-05-10T05:40:21;97448.56;;;8.09;54.34
70589;BME280;58152;49.202;18.744;2023-05-10T05:42:46;97440.63;;;8.12;53.42
70589;BME280;58152;49.202;18.744;2023-05-10T05:45:12;97442.41;;;8.12;53.73
70589;BME280;58152;49.202;18.744;2023-05-10T05:47:44;97456.94;;;8.19;54.42
70589;BME280;58152;49.202;18.744;2023-05-10T05:50:12;97450.88;;;8.19;54.33
70589;BME280;58152;49.202;18.744;2023-05-10T05:52:38;97451.53;;;8.25;54.09
70589;BME280;58152;49.202;18.744;2023-05-10T05:55:04;97455.78;;;8.28;54.16
70589;BME280;58152;49.202;18.744;2023-05-10T05:57:29;97446.16;;;8.30;53.93
70589;BME280;58152;49.202;18.744;2023-05-10T05:59:55;97446.94;;;8.32;53.75
70589;BME280;58152;49.202;18.744;2023-05-10T06:02:20;97441.69;;;8.32;53.49
70589;BME280;58152;49.202;18.744;2023-05-10T06:04:45;97441.50;;;8.38;53.96
70589;BME280;58152;49.202;18.744;2023-05-10T06:07:11;97439.63;;;8.43;53.47
70589;BME280;58152;49.202;18.744;2023-05-10T06:09:37;97439.38;;;8.49;54.16
70589;BME280;58152;49.202;18.744;2023-05-10T06:12:03;97434.06;;;8.52;53.69
70589;BME280;58152;49.202;18.744;2023-05-10T06:14:28;97431.31;;;8.55;53.95
70589;BME280;58152;49.202;18.744;2023-05-10T06:16:53;97427.75;;;8.58;53.91
70589;BME280;58152;49.202;18.744;2023-05-10T06:19:19;97437.91;;;8.65;54.05
70589;BME280;58152;49.202;18.744;2023-05-10T06:21:44;97434.28;;;8.70;54.44
70589;BME280;58152;49.202;18.744;2023-05-10T06:24:10;97435.03;;;8.73;54.10
70589;BME280;58152;49.202;18.744;2023-05-10T06:26:35;97439.16;;;8.79;54.42
70589;BME280;58152;49.202;18.744;2023-05-10T06:29:01;97426.94;;;8.79;54.41
70589;BME280;58152;49.202;18.744;2023-05-10T06:31:26;97438.13;;;8.84;54.22
70589;BME280;58152;49.202;18.744;2023-05-10T06:33:51;97428.59;;;8.82;54.23
70589;BME280;58152;49.202;18.744;2023-05-10T06:36:17;97429.22;;;8.88;54.28
70589;BME280;58152;49.202;18.744;2023-05-10T06:38:42;97443.63;;;9.00;54.18
70589;BME280;58152;49.202;18.744;2023-05-10T06:41:08;97451.28;;;9.05;54.63
70589;BME280;58152;49.202;18.744;2023-05-10T06:43:33;97439.81;;;9.09;53.98
70589;BME280;58152;49.202;18.744;2023-05-10T06:45:59;97440.56;;;9.12;53.86
70589;BME280;58152;49.202;18.744;2023-05-10T06:48:24;97448.84;;;9.24;54.04
70589;BME280;58152;49.202;18.744;2023-05-10T06:50:49;97440.91;;;9.25;54.29
70589;BME280;58152;49.202;18.744;2023-05-10T06:53:15;97433.06;;;9.25;53.63
70589;BME280;58152;49.202;18.744;2023-05-10T06:55:40;97441.44;;;9.35;53.81
70589;BME280;58152;49.202;18.744;2023-05-10T06:58:06;97429.84;;;9.40;53.60
70589;BME280;58152;49.202;18.744;2023-05-10T07:00:31;97440.19;;;9.43;53.62
70589;BME280;58152;49.202;18.744;2023-05-10T07:02:57;97426.81;;;9.51;53.29
70589;BME280;58152;49.202;18.744;2023-05-10T07:05:23;97439.47;;;9.62;53.53
70589;BME280;58152;49.202;18.744;2023-05-10T07:07:49;97421.09;;;9.63;53.46
70589;BME280;58152;49.202;18.744;2023-05-10T07:10:14;97423.63;;;9.65;53.41
70589;BME280;58152;49.202;18.744;2023-05-10T07:12:39;97425.22;;;9.69;53.63
70589;BME280;58152;49.202;18.744;2023-05-10T07:15:05;97422.41;;;9.74;53.41
70589;BME280;58152;49.202;18.744;2023-05-10T07:17:31;97422.28;;;9.77;53.43
70589;BME280;58152;49.202;18.744;2023-05-10T07:20:01;97423.06;;;9.79;53.67
70589;BME280;58152;49.202;18.744;2023-05-10T07:22:26;97414.16;;;9.83;53.80
70589;BME280;58152;49.202;18.744;2023-05-10T07:24:52;97420.88;;;9.90;53.98
70589;BME280;58152;49.202;18.744;2023-05-10T07:27:17;97418.09;;;9.93;53.70
70589;BME280;58152;49.202;18.744;2023-05-10T07:29:43;97412.63;;;9.99;54.16
70589;BME280;58152;49.202;18.744;2023-05-10T07:32:08;97417.53;;;10.07;54.02
70589;BME280;58152;49.202;18.744;2023-05-10T07:34:33;97408.69;;;10.09;53.64
70589;BME280;58152;49.202;18.744;2023-05-10T07:36:59;97409.28;;;10.16;52.73
70589;BME280;58152;49.202;18.744;2023-05-10T07:39:26;97416.00;;;10.22;52.91
70589;BME280;58152;49.202;18.744;2023-05-10T07:41:51;97413.19;;;10.28;52.68
70589;BME280;58152;49.202;18.744;2023-05-10T07:44:17;97407.78;;;10.31;52.99
70589;BME280;58152;49.202;18.744;2023-05-10T07:46:44;97413.84;;;10.33;53.12
70589;BME280;58152;49.202;18.744;2023-05-10T07:49:09;97405.56;;;10.42;52.42
70589;BME280;58152;49.202;18.744;2023-05-10T07:51:35;97412.75;;;10.57;52.53
70589;BME280;58152;49.202;18.744;2023-05-10T07:54:00;97412.69;;;10.59;52.00
70589;BME280;58152;49.202;18.744;2023-05-10T07:56:29;97401.16;;;10.63;52.21
70589;BME280;58152;49.202;18.744;2023-05-10T07:58:56;97388.69;;;10.68;52.17
70589;BME280;58152;49.202;18.744;2023-05-10T08:01:22;97398.81;;;10.76;52.17
70589;BME280;58152;49.202;18.744;2023-05-10T08:03:48;97404.66;;;10.82;52.19
70589;BME280;58152;49.202;18.744;2023-05-10T08:06:15;97392.28;;;10.84;51.91
70589;BME280;58152;49.202;18.744;2023-05-10T08:08:41;97410.31;;;10.92;51.71
70589;BME280;58152;49.202;18.744;2023-05-10T08:11:06;97403.00;;;10.99;51.96
70589;BME280;58152;49.202;18.744;2023-05-10T08:13:32;97395.53;;;11.08;51.64
70589;BME280;58152;49.202;18.744;2023-05-10T08:15:58;97402.00;;;11.20;51.90
70589;BME280;58152;49.202;18.744;2023-05-10T08:18:23;97390.53;;;11.23;51.17
70589;BME280;58152;49.202;18.744;2023-05-10T08:20:48;97397.19;;;11.30;51.53
70589;BME280;58152;49.202;18.744;2023-05-10T08:23:14;97403.47;;;11.44;51.62
70589;BME280;58152;49.202;18.744;2023-05-10T08:25:39;97396.44;;;11.45;50.73
70589;BME280;58152;49.202;18.744;2023-05-10T08:28:05;97407.50;;;11.52;50.60
70589;BME280;58152;49.202;18.744;2023-05-10T08:30:30;97398.69;;;11.53;50.58
70589;BME280;58152;49.202;18.744;2023-05-10T08:32:56;97397.75;;;11.54;50.66
70589;BME280;58152;49.202;18.744;2023-05-10T08:35:21;97399.19;;;11.61;50.97
70589;BME280;58152;49.202;18.744;2023-05-10T08:37:46;97396.97;;;11.70;50.05
70589;BME280;58152;49.202;18.744;2023-05-10T08:40:12;97402.50;;;11.83;49.75
70589;BME280;58152;49.202;18.744;2023-05-10T08:42:40;97410.91;;;11.90;50.21
70589;BME280;58152;49.202;18.744;2023-05-10T08:45:09;97401.72;;;11.99;50.08
70589;BME280;58152;49.202;18.744;2023-05-10T08:47:36;97411.03;;;12.06;49.82
70589;BME280;58152;49.202;18.744;2023-05-10T08:50:03;97415.34;;;12.07;48.83
70589;BME280;58152;49.202;18.744;2023-05-10T08:52:30;97404.69;;;12.10;49.23
70589;BME280;58152;49.202;18.744;2023-05-10T08:54:56;97413.63;;;12.23;49.12
70589;BME280;58152;49.202;18.744;2023-05-10T08:57:23;97413.81;;;12.20;48.85
70589;BME280;58152;49.202;18.744;2023-05-10T08:59:49;97416.44;;;12.20;49.59
70589;BME280;58152;49.202;18.744;2023-05-10T09:02:14;97414.03;;;12.15;49.02
70589;BME280;58152;49.202;18.744;2023-05-10T09:04:41;97403.19;;;12.21;48.69
70589;BME280;58152;49.202;18.744;2023-05-10T09:07:07;97414.31;;;12.27;49.08
70589;BME280;58152;49.202;18.744;2023-05-10T09:09:33;97415.41;;;12.23;49.54
70589;BME280;58152;49.202;18.744;2023-05-10T09:11:59;97410.47;;;12.34;49.06
70589;BME280;58152;49.202;18.744;2023-05-10T09:14:25;97421.03;;;12.32;49.23
70589;BME280;58152;49.202;18.744;2023-05-10T09:16:50;97402.81;;;12.29;49.23
70589;BME280;58152;49.202;18.744;2023-05-10T09:19:16;97420.75;;;12.38;49.73
70589;BME280;58152;49.202;18.744;2023-05-10T09:21:41;97412.78;;;12.40;49.00
70589;BME280;58152;49.202;18.744;2023-05-10T09:24:08;97411.53;;;12.47;49.13
70589;BME280;58152;49.202;18.744;2023-05-10T09:26:34;97417.56;;;12.49;49.36
70589;BME280;58152;49.202;18.744;2023-05-10T09:29:01;97414.81;;;12.68;49.09
70589;BME280;58152;49.202;18.744;2023-05-10T09:31:45;97417.56;;;12.82;48.97
70589;BME280;58152;49.202;18.744;2023-05-10T09:34:15;97417.66;;;12.81;48.93
70589;BME280;58152;49.202;18.744;2023-05-10T09:36:54;97412.38;;;12.81;48.61
70589;BME280;58152;49.202;18.744;2023-05-10T09:39:20;97400.06;;;12.81;48.96
70589;BME280;58152;49.202;18.744;2023-05-10T09:41:45;97412.88;;;12.87;48.85
70589;BME280;58152;49.202;18.744;2023-05-10T09:44:16;97406.72;;;12.88;48.49
70589;BME280;58152;49.202;18.744;2023-05-10T09:46:42;97423.97;;;12.94;48.43
70589;BME280;58152;49.202;18.744;2023-05-10T09:49:08;97400.84;;;12.99;48.00
70589;BME280;58152;49.202;18.744;2023-05-10T09:51:34;97403.94;;;13.07;47.46
70589;BME280;58152;49.202;18.744;2023-05-10T09:54:12;97405.22;;;13.16;47.72
70589;BME280;58152;49.202;18.744;2023-05-10T09:56:38;97416.28;;;13.22;47.74
70589;BME280;58152;49.202;18.744;2023-05-10T09:59:06;97401.00;;;13.29;47.86
70589;BME280;58152;49.202;18.744;2023-05-10T10:01:33;97396.66;;;13.44;47.70
70589;BME280;58152;49.202;18.744;2023-05-10T10:04:06;97396.25;;;13.52;47.80
70589;BME280;58152;49.202;18.744;2023-05-10T10:06:36;97395.47;;;13.65;46.90
70589;BME280;58152;49.202;18.744;2023-05-10T10:09:02;97389.13;;;13.84;46.56
70589;BME280;58152;49.202;18.744;2023-05-10T10:11:28;97388.63;;;14.07;46.36
70589;BME280;58152;49.202;18.744;2023-05-10T10:13:54;97386.91;;;14.36;45.84
70589;BME280;58152;49.202;18.744;2023-05-10T10:16:20;97379.59;;;14.56;45.29
70589;BME280;58152;49.202;18.744;2023-05-10T10:18:47;97382.72;;;14.48;45.61
70589;BME280;58152;49.202;18.744;2023-05-10T10:21:13;97391.81;;;14.42;45.05
70589;BME280;58152;49.202;18.744;2023-05-10T10:23:38;97384.41;;;14.63;45.11
70589;BME280;58152;49.202;18.744;2023-05-10T10:26:04;97371.19;;;14.92;44.61
70589;BME280;58152;49.202;18.744;2023-05-10T10:31:11;97382.22;;;14.56;44.54
70589;BME280;58152;49.202;18.744;2023-05-10T10:34:01;97390.16;;;14.56;43.47
70589;BME280;58152;49.202;18.744;2023-05-10T10:36:31;97376.09;;;14.84;43.77
70589;BME280;58152;49.202;18.744;2023-05-10T10:39:00;97374.41;;;14.97;43.72
70589;BME280;58152;49.202;18.744;2023-05-10T10:41:30;97388.00;;;14.91;44.17
70589;BME280;58152;49.202;18.744;2023-05-10T10:47:24;97382.59;;;14.92;41.99
70589;BME280;58152;49.202;18.744;2023-05-10T10:50:08;97372.03;;;14.92;43.44
70589;BME280;58152;49.202;18.744;2023-05-10T10:55:17;97360.19;;;14.85;43.96
70589;BME280;58152;49.202;18.744;2023-05-10T10:57:52;97365.81;;;14.93;43.65
70589;BME280;58152;49.202;18.744;2023-05-10T11:03:03;97361.25;;;15.51;42.31
70589;BME280;58152;49.202;18.744;2023-05-10T11:08:15;97354.97;;;15.93;41.10
70589;BME280;58152;49.202;18.744;2023-05-10T11:11:04;97350.22;;;16.11;39.31
70589;BME280;58152;49.202;18.744;2023-05-10T11:13:46;97368.38;;;16.43;38.27
70589;BME280;58152;49.202;18.744;2023-05-10T11:16:17;97352.59;;;16.80;39.67
70589;BME280;58152;49.202;18.744;2023-05-10T11:21:26;97358.41;;;17.34;38.71
70589;BME280;58152;49.202;18.744;2023-05-10T11:23:55;97340.53;;;17.49;38.31
70589;BME280;58152;49.202;18.744;2023-05-10T11:26:22;97353.91;;;17.71;37.84
70589;BME280;58152;49.202;18.744;2023-05-10T11:28:51;97338.53;;;17.76;38.32
70589;BME280;58152;49.202;18.744;2023-05-10T11:31:19;97345.84;;;17.97;37.71
70589;BME280;58152;49.202;18.744;2023-05-10T11:33:49;97361.13;;;18.17;37.05
70589;BME280;58152;49.202;18.744;2023-05-10T11:36:21;97341.97;;;18.25;37.18
70589;BME280;58152;49.202;18.744;2023-05-10T11:38:51;97338.25;;;18.39;37.05
70589;BME280;58152;49.202;18.744;2023-05-10T11:41:18;97326.41;;;18.54;37.48
70589;BME280;58152;49.202;18.744;2023-05-10T11:43:46;97338.63;;;18.68;36.78
70589;BME280;58152;49.202;18.744;2023-05-10T11:46:14;97341.78;;;18.62;36.88
70589;BME280;58152;49.202;18.744;2023-05-10T11:48:41;97349.00;;;18.60;37.54
70589;BME280;58152;49.202;18.744;2023-05-10T11:51:07;97347.53;;;18.44;37.71
70589;BME280;58152;49.202;18.744;2023-05-10T11:53:33;97342.09;;;18.35;37.82
70589;BME280;58152;49.202;18.744;2023-05-10T11:56:09;97361.75;;;18.32;37.60
70589;BME280;58152;49.202;18.744;2023-05-10T11:58:36;97334.28;;;18.56;38.04
70589;BME280;58152;49.202;18.744;2023-05-10T12:01:03;97329.88;;;18.78;37.70
70589;BME280;58152;49.202;18.744;2023-05-10T12:03:29;97328.53;;;18.84;37.08
70589;BME280;58152;49.202;18.744;2023-05-10T12:05:56;97329.97;;;18.77;37.18
70589;BME280;58152;49.202;18.744;2023-05-10T12:08:27;97324.63;;;18.66;36.76
70589;BME280;58152;49.202;18.744;2023-05-10T12:10:54;97330.31;;;18.61;36.90
70589;BME280;58152;49.202;18.744;2023-05-10T12:13:29;97319.28;;;18.54;36.63
70589;BME280;58152;49.202;18.744;2023-05-10T12:15:57;97330.41;;;18.60;37.23
70589;BME280;58152;49.202;18.744;2023-05-10T12:18:30;97317.38;;;18.57;37.09
70589;BME280;58152;49.202;18.744;2023-05-10T12:21:05;97322.00;;;18.77;35.97
70589;BME280;58152;49.202;18.744;2023-05-10T12:23:31;97346.75;;;19.00;36.80
70589;BME280;58152;49.202;18.744;2023-05-10T12:26:03;97346.38;;;18.82;36.26
70589;BME280;58152;49.202;18.744;2023-05-10T12:28:32;97335.97;;;18.68;35.77
70589;BME280;58152;49.202;18.744;2023-05-10T12:30:58;97329.63;;;18.70;35.71
70589;BME280;58152;49.202;18.744;2023-05-10T12:33:25;97330.78;;;18.66;35.86
70589;BME280;58152;49.202;18.744;2023-05-10T12:35:54;97323.47;;;18.70;35.59
70589;BME280;58152;49.202;18.744;2023-05-10T12:41:02;97321.72;;;18.46;36.03
70589;BME280;58152;49.202;18.744;2023-05-10T12:43:28;97317.25;;;18.47;35.72
70589;BME280;58152;49.202;18.744;2023-05-10T12:45:54;97320.03;;;18.57;35.58
70589;BME280;58152;49.202;18.744;2023-05-10T12:48:19;97313.53;;;18.72;35.78
70589;BME280;58152;49.202;18.744;2023-05-10T12:50:45;97316.88;;;18.51;35.81
70589;BME280;58152;49.202;18.744;2023-05-10T12:53:10;97323.28;;;18.38;36.00
70589;BME280;58152;49.202;18.744;2023-05-10T12:55:36;97316.97;;;18.27;36.12
70589;BME280;58152;49.202;18.744;2023-05-10T12:58:01;97314.56;;;18.24;36.30
70589;BME280;58152;49.202;18.744;2023-05-10T13:00:27;97312.34;;;18.18;36.12
70589;BME280;58152;49.202;18.744;2023-05-10T13:02:52;97320.78;;;18.12;36.05
70589;BME280;58152;49.202;18.744;2023-05-10T13:05:18;97311.59;;;18.05;35.65
70589;BME280;58152;49.202;18.744;2023-05-10T13:07:43;97317.94;;;17.91;35.55
70589;BME280;58152;49.202;18.744;2023-05-10T13:10:09;97321.06;;;17.85;36.38
70589;BME280;58152;49.202;18.744;2023-05-10T13:12:35;97312.63;;;17.91;35.89
70589;BME280;58152;49.202;18.744;2023-05-10T13:15:00;97300.69;;;17.86;36.36
70589;BME280;58152;49.202;18.744;2023-05-10T13:17:26;97302.16;;;17.90;36.21
70589;BME280;58152;49.202;18.744;2023-05-10T13:19:51;97307.09;;;17.94;35.67
70589;BME280;58152;49.202;18.744;2023-05-10T13:22:17;97310.19;;;18.12;34.91
70589;BME280;58152;49.202;18.744;2023-05-10T13:24:43;97299.25;;;18.50;34.01
70589;BME280;58152;49.202;18.744;2023-05-10T13:27:11;97301.44;;;18.57;34.74
70589;BME280;58152;49.202;18.744;2023-05-10T13:29:36;97298.16;;;18.64;34.74
70589;BME280;58152;49.202;18.744;2023-05-10T13:32:12;97283.34;;;18.73;34.45
70589;BME280;58152;49.202;18.744;2023-05-10T13:34:38;97283.56;;;18.81;34.03
70589;BME280;58152;49.202;18.744;2023-05-10T13:37:03;97291.56;;;18.81;34.07
70589;BME280;58152;49.202;18.744;2023-05-10T13:39:29;97292.66;;;18.78;34.41
70589;BME280;58152;49.202;18.744;2023-05-10T13:41:58;97287.19;;;19.02;34.22